sensor_id;sensor_type;location;lat;lon;timestamp;noise_LAeq;noise_LA_min;noise_LA_max;noise_LA01;noise_LA95
66455;Laerm;57651;51.438;5.982;2022-09-14T00:00:02;40.63;39.41;42.31;;
66455;Laerm;57651;51.438;5.982;2022-09-14T00:00:13;40.56;39.03;42.24;;
66455;Laerm;57651;51.438;5.982;2022-09-14T00:00:23;40.57;39.03;42.36;;
66455;Laerm;57651;51.438;5.982;2022-09-14T00:00:34;40.64;39.55;42.08;;
66455;Laerm;57651;51.438;5.982;2022-09-14T00:00:45;40.58;39.49;42.07;;
66455;Laerm;57651;51.438;5.982;2022-09-14T00:00:58;40.61;39.28;42.42;;
66455;Laerm;57651;51.438;5.982;2022-09-14T00:01:09;40.57;39.20;42.67;;
66455;Laerm;57651;51.438;5.982;2022-09-14T00:01:21;40.65;39.45;43.31;;
66455;Laerm;57651;51.438;5.982;2022-09-14T00:01:34;40.65;39.19;42.15;;
66455;Laerm;57651;51.438;5.982;2022-09-14T00:01:45;40.60;39.50;42.85;;
66455;Laerm;57651;51.438;5.982;2022-09-14T00:01:55;40.60;39.19;42.23;;
66455;Laerm;57651;51.438;5.982;2022-09-14T00:02:05;40.59;39.48;42.29;;
66455;Laerm;57651;51.438;5.982;2022-09-14T00:02:16;40.60;39.45;42.89;;
66455;Laerm;57651;51.438;5.982;2022-09-14T00:02:26;40.58;39.35;42.40;;
66455;Laerm;57651;51.438;5.982;2022-09-14T00:02:36;40.60;39.33;42.31;;
66455;Laerm;57651;51.438;5.982;2022-09-14T00:02:47;40.62;39.22;43.03;;
66455;Laerm;57651;51.438;5.982;2022-09-14T00:02:57;40.55;39.50;42.17;;
66455;Laerm;57651;51.438;5.982;2022-09-14T00:03:08;40.60;39.11;42.27;;
66455;Laerm;57651;51.438;5.982;2022-09-14T00:03:18;40.56;39.44;42.11;;
66455;Laerm;57651;51.438;5.982;2022-09-14T00:03:28;40.58;39.30;42.35;;
66455;Laerm;57651;51.438;5.982;2022-09-14T00:03:39;40.53;39.54;42.10;;
66455;Laerm;57651;51.438;5.982;2022-09-14T00:03:53;40.58;39.38;41.96;;
66455;Laerm;57651;51.438;5.982;2022-09-14T00:04:11;40.56;39.27;41.95;;
66455;Laerm;57651;51.438;5.982;2022-09-14T00:04:22;40.55;39.24;42.18;;
66455;Laerm;57651;51.438;5.982;2022-09-14T00:04:35;40.59;39.32;43.04;;
66455;Laerm;57651;51.438;5.982;2022-09-14T00:04:46;40.61;39.32;42.75;;
66455;Laerm;57651;51.438;5.982;2022-09-14T00:04:56;40.59;39.37;41.94;;
66455;Laerm;57651;51.438;5.982;2022-09-14T00:05:07;40.53;39.18;42.62;;
66455;Laerm;57651;51.438;5.982;2022-09-14T00:05:17;40.58;39.28;42.57;;
66455;Laerm;57651;51.438;5.982;2022-09-14T00:05:28;40.58;39.38;42.33;;
66455;Laerm;57651;51.438;5.982;2022-09-14T00:05:38;40.57;39.42;42.04;;
66455;Laerm;57651;51.438;5.982;2022-09-14T00:05:48;40.61;39.48;42.16;;
66455;Laerm;57651;51.438;5.982;2022-09-14T00:06:17;40.60;39.42;42.27;;
66455;Laerm;57651;51.438;5.982;2022-09-14T00:06:28;40.60;39.36;42.27;;
66455;Laerm;57651;51.438;5.982;2022-09-14T00:06:39;40.58;39.18;42.06;;
66455;Laerm;57651;51.438;5.982;2022-09-14T00:06:50;40.59;39.38;42.94;;
66455;Laerm;57651;51.438;5.982;2022-09-14T00:07:00;40.59;39.35;43.39;;
66455;Laerm;57651;51.438;5.982;2022-09-14T00:07:11;40.62;39.49;42.52;;
66455;Laerm;57651;51.438;5.982;2022-09-14T00:07:21;40.59;39.40;42.53;;
66455;Laerm;57651;51.438;5.982;2022-09-14T00:07:31;40.61;39.53;41.97;;
66455;Laerm;57651;51.438;5.982;2022-09-14T00:07:42;40.67;39.38;42.78;;
66455;Laerm;57651;51.438;5.982;2022-09-14T00:07:52;40.59;39.33;42.08;;
66455;Laerm;57651;51.438;5.982;2022-09-14T00:08:02;40.59;39.46;41.82;;
66455;Laerm;57651;51.438;5.982;2022-09-14T00:08:13;40.66;39.49;42.19;;
66455;Laerm;57651;51.438;5.982;2022-09-14T00:08:23;40.62;39.10;42.64;;
66455;Laerm;57651;51.438;5.982;2022-09-14T00:08:33;40.63;39.46;42.18;;
66455;Laerm;57651;51.438;5.982;2022-09-14T00:08:44;40.65;39.46;42.08;;
66455;Laerm;57651;51.438;5.982;2022-09-14T00:08:58;40.64;39.46;42.23;;
66455;Laerm;57651;51.438;5.982;2022-09-14T00:09:17;40.65;39.29;42.80;;
66455;Laerm;57651;51.438;5.982;2022-09-14T00:09:28;40.66;39.45;42.18;;
66455;Laerm;57651;51.438;5.982;2022-09-14T00:09:38;40.65;39.29;42.70;;
66455;Laerm;57651;51.438;5.982;2022-09-14T00:09:50;40.68;39.24;42.80;;
66455;Laerm;57651;51.438;5.982;2022-09-14T00:10:00;40.68;39.40;42.26;;
66455;Laerm;57651;51.438;5.982;2022-09-14T00:10:11;40.70;39.54;42.17;;
66455;Laerm;57651;51.438;5.982;2022-09-14T00:10:21;40.67;39.57;42.27;;
66455;Laerm;57651;51.438;5.982;2022-09-14T00:10:32;40.71;39.43;42.49;;
66455;Laerm;57651;51.438;5.982;2022-09-14T00:10:44;40.60;39.44;42.31;;
66455;Laerm;57651;51.438;5.982;2022-09-14T00:10:54;40.64;39.35;42.12;;
66455;Laerm;57651;51.438;5.982;2022-09-14T00:11:06;40.59;39.39;42.45;;
66455;Laerm;57651;51.438;5.982;2022-09-14T00:11:17;40.64;39.31;42.64;;
66455;Laerm;57651;51.438;5.982;2022-09-14T00:11:29;40.69;39.52;42.67;;
66455;Laerm;57651;51.438;5.982;2022-09-14T00:11:40;40.65;39.60;42.15;;
66455;Laerm;57651;51.438;5.982;2022-09-14T00:11:50;40.60;39.28;42.55;;
66455;Laerm;57651;51.438;5.982;2022-09-14T00:12:01;40.67;39.35;42.37;;
66455;Laerm;57651;51.438;5.982;2022-09-14T00:12:12;40.63;39.28;42.13;;
66455;Laerm;57651;51.438;5.982;2022-09-14T00:12:22;40.59;39.32;41.95;;
66455;Laerm;57651;51.438;5.982;2022-09-14T00:12:34;40.61;39.55;42.50;;
66455;Laerm;57651;51.438;5.982;2022-09-14T00:12:44;40.63;39.55;42.00;;
66455;Laerm;57651;51.438;5.982;2022-09-14T00:12:54;40.62;39.24;42.20;;
66455;Laerm;57651;51.438;5.982;2022-09-14T00:13:05;40.64;39.32;42.34;;
66455;Laerm;57651;51.438;5.982;2022-09-14T00:13:15;40.68;39.46;42.92;;
66455;Laerm;57651;51.438;5.982;2022-09-14T00:13:26;40.64;39.32;42.87;;
66455;Laerm;57651;51.438;5.982;2022-09-14T00:13:36;40.67;39.46;42.52;;
66455;Laerm;57651;51.438;5.982;2022-09-14T00:13:47;40.62;39.61;42.00;;
66455;Laerm;57651;51.438;5.982;2022-09-14T00:13:58;40.58;39.45;42.26;;
66455;Laerm;57651;51.438;5.982;2022-09-14T00:14:09;40.60;39.54;42.21;;
66455;Laerm;57651;51.438;5.982;2022-09-14T00:14:19;40.62;39.50;42.07;;
66455;Laerm;57651;51.438;5.982;2022-09-14T00:14:29;40.66;39.31;43.50;;
66455;Laerm;57651;51.438;5.982;2022-09-14T00:14:40;40.66;39.21;42.18;;
66455;Laerm;57651;51.438;5.982;2022-09-14T00:14:50;40.64;39.13;42.15;;
66455;Laerm;57651;51.438;5.982;2022-09-14T00:15:01;40.65;39.56;42.78;;
66455;Laerm;57651;51.438;5.982;2022-09-14T00:15:11;40.59;39.59;42.18;;
66455;Laerm;57651;51.438;5.982;2022-09-14T00:15:21;40.64;39.47;42.25;;
66455;Laerm;57651;51.438;5.982;2022-09-14T00:15:34;40.69;39.44;42.68;;
66455;Laerm;57651;51.438;5.982;2022-09-14T00:15:44;40.64;39.40;42.23;;
66455;Laerm;57651;51.438;5.982;2022-09-14T00:15:55;40.63;39.41;42.21;;
66455;Laerm;57651;51.438;5.982;2022-09-14T00:16:07;40.69;39.36;42.08;;
66455;Laerm;57651;51.438;5.982;2022-09-14T00:16:22;40.68;39.51;42.37;;
66455;Laerm;57651;51.438;5.982;2022-09-14T00:16:34;40.69;39.41;42.33;;
66455;Laerm;57651;51.438;5.982;2022-09-14T00:16:45;40.68;39.48;42.46;;
66455;Laerm;57651;51.438;5.982;2022-09-14T00:16:55;40.71;39.51;42.43;;
66455;Laerm;57651;51.438;5.982;2022-09-14T00:17:06;40.69;39.47;42.38;;
66455;Laerm;57651;51.438;5.982;2022-09-14T00:17:16;40.64;39.57;42.44;;
66455;Laerm;57651;51.438;5.982;2022-09-14T00:17:27;40.65;39.39;42.67;;
66455;Laerm;57651;51.438;5.982;2022-09-14T00:17:37;40.68;39.49;42.15;;
66455;Laerm;57651;51.438;5.982;2022-09-14T00:17:48;40.70;39.45;42.11;;
66455;Laerm;57651;51.438;5.982;2022-09-14T00:17:58;40.69;39.31;42.38;;
66455;Laerm;57651;51.438;5.982;2022-09-14T00:18:09;40.68;39.54;42.45;;
66455;Laerm;57651;51.438;5.982;2022-09-14T00:18:19;40.73;39.62;42.31;;
66455;Laerm;57651;51.438;5.982;2022-09-14T00:18:30;40.64;39.45;42.15;;
66455;Laerm;57651;51.438;5.982;2022-09-14T00:18:40;40.68;39.50;42.29;;
66455;Laerm;57651;51.438;5.982;2022-09-14T00:18:55;40.73;39.49;42.27;;
66455;Laerm;57651;51.438;5.982;2022-09-14T00:19:39;40.66;39.45;42.33;;
66455;Laerm;57651;51.438;5.982;2022-09-14T00:19:43;40.70;39.34;43.01;;
66455;Laerm;57651;51.438;5.982;2022-09-14T00:19:53;40.71;39.40;42.45;;
66455;Laerm;57651;51.438;5.982;2022-09-14T00:20:04;40.67;39.45;43.28;;
66455;Laerm;57651;51.438;5.982;2022-09-14T00:20:14;40.68;39.43;43.19;;
66455;Laerm;57651;51.438;5.982;2022-09-14T00:20:25;40.71;39.57;42.24;;
66455;Laerm;57651;51.438;5.982;2022-09-14T00:20:35;40.70;39.52;42.37;;
66455;Laerm;57651;51.438;5.982;2022-09-14T00:20:46;40.73;39.60;42.29;;
66455;Laerm;57651;51.438;5.982;2022-09-14T00:21:04;40.74;39.46;43.10;;
66455;Laerm;57651;51.438;5.982;2022-09-14T00:21:14;40.75;39.36;42.85;;
66455;Laerm;57651;51.438;5.982;2022-09-14T00:21:25;40.78;39.58;43.36;;
66455;Laerm;57651;51.438;5.982;2022-09-14T00:21:36;40.80;39.59;42.42;;
66455;Laerm;57651;51.438;5.982;2022-09-14T00:21:55;40.73;39.49;42.74;;
66455;Laerm;57651;51.438;5.982;2022-09-14T00:22:06;40.75;39.51;42.74;;
66455;Laerm;57651;51.438;5.982;2022-09-14T00:22:16;40.81;39.49;42.62;;
66455;Laerm;57651;51.438;5.982;2022-09-14T00:22:27;40.75;39.61;42.65;;
66455;Laerm;57651;51.438;5.982;2022-09-14T00:22:37;40.71;39.37;42.58;;
66455;Laerm;57651;51.438;5.982;2022-09-14T00:22:47;40.69;39.39;42.16;;
66455;Laerm;57651;51.438;5.982;2022-09-14T00:22:58;40.71;39.61;42.40;;
66455;Laerm;57651;51.438;5.982;2022-09-14T00:23:09;40.67;39.58;42.27;;
66455;Laerm;57651;51.438;5.982;2022-09-14T00:23:19;40.70;39.61;42.54;;
66455;Laerm;57651;51.438;5.982;2022-09-14T00:23:29;40.67;39.32;42.59;;
66455;Laerm;57651;51.438;5.982;2022-09-14T00:23:40;40.71;39.52;42.83;;
66455;Laerm;57651;51.438;5.982;2022-09-14T00:23:51;40.71;39.65;42.69;;
66455;Laerm;57651;51.438;5.982;2022-09-14T00:24:02;40.74;39.70;42.42;;
66455;Laerm;57651;51.438;5.982;2022-09-14T00:24:13;40.70;39.63;42.72;;
66455;Laerm;57651;51.438;5.982;2022-09-14T00:24:24;40.65;39.36;42.45;;
66455;Laerm;57651;51.438;5.982;2022-09-14T00:24:35;40.69;39.39;42.21;;
66455;Laerm;57651;51.438;5.982;2022-09-14T00:24:45;40.70;39.50;42.27;;
66455;Laerm;57651;51.438;5.982;2022-09-14T00:24:56;40.68;39.24;41.98;;
66455;Laerm;57651;51.438;5.982;2022-09-14T00:25:06;40.72;39.48;42.50;;
66455;Laerm;57651;51.438;5.982;2022-09-14T00:25:17;40.70;39.37;42.40;;
66455;Laerm;57651;51.438;5.982;2022-09-14T00:25:27;40.72;39.38;42.58;;
66455;Laerm;57651;51.438;5.982;2022-09-14T00:25:38;40.67;39.49;42.33;;
66455;Laerm;57651;51.438;5.982;2022-09-14T00:25:48;40.66;39.35;42.08;;
66455;Laerm;57651;51.438;5.982;2022-09-14T00:26:05;40.60;39.45;42.02;;
66455;Laerm;57651;51.438;5.982;2022-09-14T00:26:17;40.69;39.59;42.68;;
66455;Laerm;57651;51.438;5.982;2022-09-14T00:26:28;40.66;39.47;42.45;;
66455;Laerm;57651;51.438;5.982;2022-09-14T00:26:38;40.68;39.51;42.25;;
66455;Laerm;57651;51.438;5.982;2022-09-14T00:26:49;40.66;39.29;42.53;;
66455;Laerm;57651;51.438;5.982;2022-09-14T00:26:59;40.68;39.36;42.30;;
66455;Laerm;57651;51.438;5.982;2022-09-14T00:27:11;40.65;39.41;42.48;;
66455;Laerm;57651;51.438;5.982;2022-09-14T00:27:21;40.67;39.49;42.82;;
66455;Laerm;57651;51.438;5.982;2022-09-14T00:27:32;40.70;39.74;42.46;;
66455;Laerm;57651;51.438;5.982;2022-09-14T00:27:43;40.66;39.30;42.41;;
66455;Laerm;57651;51.438;5.982;2022-09-14T00:27:53;40.67;39.21;42.05;;
66455;Laerm;57651;51.438;5.982;2022-09-14T00:28:04;40.69;39.61;42.21;;
66455;Laerm;57651;51.438;5.982;2022-09-14T00:28:14;40.65;39.38;42.48;;
66455;Laerm;57651;51.438;5.982;2022-09-14T00:28:24;40.63;39.55;42.07;;
66455;Laerm;57651;51.438;5.982;2022-09-14T00:28:36;40.67;39.64;42.95;;
66455;Laerm;57651;51.438;5.982;2022-09-14T00:28:47;40.67;39.54;42.78;;
66455;Laerm;57651;51.438;5.982;2022-09-14T00:28:58;40.71;39.51;42.59;;
66455;Laerm;57651;51.438;5.982;2022-09-14T00:29:09;40.67;39.26;42.49;;
66455;Laerm;57651;51.438;5.982;2022-09-14T00:29:20;40.65;39.40;42.96;;
66455;Laerm;57651;51.438;5.982;2022-09-14T00:29:31;40.63;39.26;43.42;;
66455;Laerm;57651;51.438;5.982;2022-09-14T00:29:42;40.63;39.61;42.49;;
66455;Laerm;57651;51.438;5.982;2022-09-14T00:29:52;40.67;39.51;42.32;;
66455;Laerm;57651;51.438;5.982;2022-09-14T00:30:03;40.68;39.31;42.49;;
66455;Laerm;57651;51.438;5.982;2022-09-14T00:30:14;40.67;39.38;42.33;;
66455;Laerm;57651;51.438;5.982;2022-09-14T00:30:25;40.66;39.65;42.28;;
66455;Laerm;57651;51.438;5.982;2022-09-14T00:30:39;40.63;39.43;41.97;;
66455;Laerm;57651;51.438;5.982;2022-09-14T00:30:50;40.65;39.36;42.46;;
66455;Laerm;57651;51.438;5.982;2022-09-14T00:31:02;40.69;39.19;42.45;;
66455;Laerm;57651;51.438;5.982;2022-09-14T00:31:13;40.69;39.59;42.70;;
66455;Laerm;57651;51.438;5.982;2022-09-14T00:31:24;40.65;39.17;42.32;;
66455;Laerm;57651;51.438;5.982;2022-09-14T00:31:35;40.69;39.12;42.36;;
66455;Laerm;57651;51.438;5.982;2022-09-14T00:31:47;40.70;39.39;42.44;;
66455;Laerm;57651;51.438;5.982;2022-09-14T00:31:57;40.69;39.40;42.74;;
66455;Laerm;57651;51.438;5.982;2022-09-14T00:32:08;40.69;39.38;42.39;;
66455;Laerm;57651;51.438;5.982;2022-09-14T00:32:18;40.70;39.63;42.54;;
66455;Laerm;57651;51.438;5.982;2022-09-14T00:32:28;40.68;39.50;42.58;;
66455;Laerm;57651;51.438;5.982;2022-09-14T00:32:39;40.68;39.31;42.44;;
66455;Laerm;57651;51.438;5.982;2022-09-14T00:32:50;40.66;39.61;42.23;;
66455;Laerm;57651;51.438;5.982;2022-09-14T00:33:00;40.68;39.67;42.27;;
66455;Laerm;57651;51.438;5.982;2022-09-14T00:33:10;40.73;39.50;42.80;;
66455;Laerm;57651;51.438;5.982;2022-09-14T00:33:21;40.68;39.37;42.29;;
66455;Laerm;57651;51.438;5.982;2022-09-14T00:33:31;40.74;39.70;42.50;;
66455;Laerm;57651;51.438;5.982;2022-09-14T00:33:43;40.73;39.52;42.56;;
66455;Laerm;57651;51.438;5.982;2022-09-14T00:33:56;40.68;39.49;42.44;;
66455;Laerm;57651;51.438;5.982;2022-09-14T00:34:10;40.72;39.18;42.95;;
66455;Laerm;57651;51.438;5.982;2022-09-14T00:34:21;40.69;39.28;42.44;;
66455;Laerm;57651;51.438;5.982;2022-09-14T00:34:31;40.71;39.48;42.60;;
66455;Laerm;57651;51.438;5.982;2022-09-14T00:34:41;40.65;39.54;42.56;;
66455;Laerm;57651;51.438;5.982;2022-09-14T00:34:52;40.71;39.33;42.39;;
66455;Laerm;57651;51.438;5.982;2022-09-14T00:35:02;40.63;39.58;41.99;;
66455;Laerm;57651;51.438;5.982;2022-09-14T00:35:13;40.68;39.62;43.00;;
66455;Laerm;57651;51.438;5.982;2022-09-14T00:35:23;40.77;39.52;42.73;;
66455;Laerm;57651;51.438;5.982;2022-09-14T00:35:35;40.70;39.49;42.55;;
66455;Laerm;57651;51.438;5.982;2022-09-14T00:35:45;40.73;39.71;42.61;;
66455;Laerm;57651;51.438;5.982;2022-09-14T00:36:01;40.70;39.34;42.16;;
66455;Laerm;57651;51.438;5.982;2022-09-14T00:36:13;40.70;39.56;42.21;;
66455;Laerm;57651;51.438;5.982;2022-09-14T00:36:27;40.72;39.25;42.52;;
66455;Laerm;57651;51.438;5.982;2022-09-14T00:36:45;40.71;39.43;42.67;;
66455;Laerm;57651;51.438;5.982;2022-09-14T00:36:56;40.71;39.51;43.28;;
66455;Laerm;57651;51.438;5.982;2022-09-14T00:37:06;40.75;39.39;42.96;;
66455;Laerm;57651;51.438;5.982;2022-09-14T00:37:17;40.71;39.68;42.59;;
66455;Laerm;57651;51.438;5.982;2022-09-14T00:37:27;40.72;39.62;42.30;;
66455;Laerm;57651;51.438;5.982;2022-09-14T00:37:38;40.74;39.63;42.22;;
66455;Laerm;57651;51.438;5.982;2022-09-14T00:37:48;40.67;39.47;42.35;;
66455;Laerm;57651;51.438;5.982;2022-09-14T00:38:00;40.76;39.54;42.95;;
66455;Laerm;57651;51.438;5.982;2022-09-14T00:38:10;40.71;39.57;42.31;;
66455;Laerm;57651;51.438;5.982;2022-09-14T00:38:21;40.67;39.35;42.31;;
66455;Laerm;57651;51.438;5.982;2022-09-14T00:38:31;40.73;39.67;42.10;;
66455;Laerm;57651;51.438;5.982;2022-09-14T00:38:42;40.75;39.49;43.15;;
66455;Laerm;57651;51.438;5.982;2022-09-14T00:38:53;40.74;39.39;42.77;;
66455;Laerm;57651;51.438;5.982;2022-09-14T00:39:05;40.72;39.55;42.77;;
66455;Laerm;57651;51.438;5.982;2022-09-14T00:39:16;40.71;39.41;43.21;;
66455;Laerm;57651;51.438;5.982;2022-09-14T00:39:27;40.67;39.25;42.64;;
66455;Laerm;57651;51.438;5.982;2022-09-14T00:39:37;40.69;39.69;43.13;;
66455;Laerm;57651;51.438;5.982;2022-09-14T00:39:48;40.67;39.50;42.46;;
66455;Laerm;57651;51.438;5.982;2022-09-14T00:39:59;40.74;39.52;42.54;;
66455;Laerm;57651;51.438;5.982;2022-09-14T00:40:09;40.75;39.24;42.54;;
66455;Laerm;57651;51.438;5.982;2022-09-14T00:40:21;40.71;39.36;42.11;;
66455;Laerm;57651;51.438;5.982;2022-09-14T00:40:31;40.73;39.24;42.83;;
66455;Laerm;57651;51.438;5.982;2022-09-14T00:40:42;40.69;39.43;42.72;;
66455;Laerm;57651;51.438;5.982;2022-09-14T00:40:58;40.76;39.53;42.87;;
66455;Laerm;57651;51.438;5.982;2022-09-14T00:41:11;40.73;39.41;42.79;;
66455;Laerm;57651;51.438;5.982;2022-09-14T00:41:23;40.70;39.32;43.12;;
66455;Laerm;57651;51.438;5.982;2022-09-14T00:41:34;40.68;39.52;42.92;;
66455;Laerm;57651;51.438;5.982;2022-09-14T00:41:45;40.69;39.29;42.35;;
66455;Laerm;57651;51.438;5.982;2022-09-14T00:41:56;40.73;39.60;42.17;;
66455;Laerm;57651;51.438;5.982;2022-09-14T00:42:06;40.65;39.16;42.70;;
66455;Laerm;57651;51.438;5.982;2022-09-14T00:42:16;40.71;39.38;42.70;;
66455;Laerm;57651;51.438;5.982;2022-09-14T00:42:28;40.67;39.23;42.64;;
66455;Laerm;57651;51.438;5.982;2022-09-14T00:42:39;40.71;39.55;42.34;;
66455;Laerm;57651;51.438;5.982;2022-09-14T00:42:49;40.72;39.28;42.66;;
66455;Laerm;57651;51.438;5.982;2022-09-14T00:43:00;40.66;39.06;42.48;;
66455;Laerm;57651;51.438;5.982;2022-09-14T00:43:12;40.69;39.51;42.39;;
66455;Laerm;57651;51.438;5.982;2022-09-14T00:43:23;40.66;39.51;42.07;;
66455;Laerm;57651;51.438;5.982;2022-09-14T00:43:49;40.66;39.55;42.65;;
66455;Laerm;57651;51.438;5.982;2022-09-14T00:44:54;40.65;39.25;42.43;;
66455;Laerm;57651;51.438;5.982;2022-09-14T00:44:58;40.64;39.44;42.12;;
66455;Laerm;57651;51.438;5.982;2022-09-14T00:45:14;40.65;39.53;42.01;;
66455;Laerm;57651;51.438;5.982;2022-09-14T00:45:26;40.67;39.52;42.70;;
66455;Laerm;57651;51.438;5.982;2022-09-14T00:45:37;40.66;39.44;42.32;;
66455;Laerm;57651;51.438;5.982;2022-09-14T00:45:47;40.61;39.38;42.36;;
66455;Laerm;57651;51.438;5.982;2022-09-14T00:46:00;40.67;39.43;42.33;;
66455;Laerm;57651;51.438;5.982;2022-09-14T00:46:11;40.64;39.54;42.38;;
66455;Laerm;57651;51.438;5.982;2022-09-14T00:46:22;40.70;39.58;42.44;;
66455;Laerm;57651;51.438;5.982;2022-09-14T00:46:40;40.68;39.43;42.82;;
66455;Laerm;57651;51.438;5.982;2022-09-14T00:46:51;40.66;39.20;43.08;;
66455;Laerm;57651;51.438;5.982;2022-09-14T00:47:02;40.63;39.47;42.72;;
66455;Laerm;57651;51.438;5.982;2022-09-14T00:47:13;40.62;39.55;42.18;;
66455;Laerm;57651;51.438;5.982;2022-09-14T00:47:24;40.66;39.30;42.62;;
66455;Laerm;57651;51.438;5.982;2022-09-14T00:47:35;40.67;39.53;42.89;;
66455;Laerm;57651;51.438;5.982;2022-09-14T00:47:47;40.69;39.48;42.52;;
66455;Laerm;57651;51.438;5.982;2022-09-14T00:47:58;40.69;39.45;42.63;;
66455;Laerm;57651;51.438;5.982;2022-09-14T00:48:09;40.67;39.48;42.54;;
66455;Laerm;57651;51.438;5.982;2022-09-14T00:48:19;40.69;39.35;42.95;;
66455;Laerm;57651;51.438;5.982;2022-09-14T00:48:31;40.63;39.44;42.63;;
66455;Laerm;57651;51.438;5.982;2022-09-14T00:48:42;40.68;39.01;42.73;;
66455;Laerm;57651;51.438;5.982;2022-09-14T00:48:52;40.66;39.42;42.32;;
66455;Laerm;57651;51.438;5.982;2022-09-14T00:49:04;40.66;39.34;42.33;;
66455;Laerm;57651;51.438;5.982;2022-09-14T00:49:19;40.63;39.43;42.24;;
66455;Laerm;57651;51.438;5.982;2022-09-14T00:49:38;40.65;39.30;42.33;;
66455;Laerm;57651;51.438;5.982;2022-09-14T00:49:49;40.64;39.55;42.90;;
66455;Laerm;57651;51.438;5.982;2022-09-14T00:49:59;40.63;39.44;42.33;;
66455;Laerm;57651;51.438;5.982;2022-09-14T00:50:11;40.67;39.30;42.94;;
66455;Laerm;57651;51.438;5.982;2022-09-14T00:50:21;40.62;39.57;42.49;;
66455;Laerm;57651;51.438;5.982;2022-09-14T00:50:32;40.65;39.59;42.26;;
66455;Laerm;57651;51.438;5.982;2022-09-14T00:50:43;40.67;39.33;43.08;;
66455;Laerm;57651;51.438;5.982;2022-09-14T00:50:54;40.61;39.28;42.15;;
66455;Laerm;57651;51.438;5.982;2022-09-14T00:51:05;40.59;39.24;42.08;;
66455;Laerm;57651;51.438;5.982;2022-09-14T00:51:15;40.56;39.20;42.38;;
66455;Laerm;57651;51.438;5.982;2022-09-14T00:51:27;40.60;39.54;42.23;;
66455;Laerm;57651;51.438;5.982;2022-09-14T00:51:40;40.63;39.30;42.16;;
66455;Laerm;57651;51.438;5.982;2022-09-14T00:52:15;40.62;39.07;42.82;;
66455;Laerm;57651;51.438;5.982;2022-09-14T00:52:27;40.61;39.46;42.73;;
66455;Laerm;57651;51.438;5.982;2022-09-14T00:52:40;40.65;39.41;42.27;;
66455;Laerm;57651;51.438;5.982;2022-09-14T00:52:51;40.62;39.61;42.59;;
66455;Laerm;57651;51.438;5.982;2022-09-14T00:53:01;40.60;39.71;42.73;;
66455;Laerm;57651;51.438;5.982;2022-09-14T00:53:13;40.59;39.53;42.48;;
66455;Laerm;57651;51.438;5.982;2022-09-14T00:53:23;40.64;39.33;42.32;;
66455;Laerm;57651;51.438;5.982;2022-09-14T00:53:33;40.58;39.52;43.27;;
66455;Laerm;57651;51.438;5.982;2022-09-14T00:53:44;40.69;39.64;42.76;;
66455;Laerm;57651;51.438;5.982;2022-09-14T00:53:55;40.65;39.50;42.35;;
66455;Laerm;57651;51.438;5.982;2022-09-14T00:54:05;40.61;39.31;41.98;;
66455;Laerm;57651;51.438;5.982;2022-09-14T00:54:16;40.65;39.50;42.17;;
66455;Laerm;57651;51.438;5.982;2022-09-14T00:54:28;40.64;39.19;42.25;;
66455;Laerm;57651;51.438;5.982;2022-09-14T00:54:47;40.64;39.67;43.19;;
66455;Laerm;57651;51.438;5.982;2022-09-14T00:54:59;40.61;39.48;42.88;;
66455;Laerm;57651;51.438;5.982;2022-09-14T00:55:12;40.66;39.45;42.35;;
66455;Laerm;57651;51.438;5.982;2022-09-14T00:55:22;40.67;39.43;42.74;;
66455;Laerm;57651;51.438;5.982;2022-09-14T00:55:33;40.67;39.22;42.48;;
66455;Laerm;57651;51.438;5.982;2022-09-14T00:55:44;40.61;39.28;42.15;;
66455;Laerm;57651;51.438;5.982;2022-09-14T00:55:54;40.67;39.50;42.12;;
66455;Laerm;57651;51.438;5.982;2022-09-14T00:56:05;40.65;39.24;42.29;;
66455;Laerm;57651;51.438;5.982;2022-09-14T00:56:16;40.69;39.44;42.90;;
66455;Laerm;57651;51.438;5.982;2022-09-14T00:56:26;40.64;39.43;42.24;;
66455;Laerm;57651;51.438;5.982;2022-09-14T00:56:37;40.68;39.19;42.34;;
66455;Laerm;57651;51.438;5.982;2022-09-14T00:56:47;40.68;39.25;42.51;;
66455;Laerm;57651;51.438;5.982;2022-09-14T00:56:58;40.64;39.11;42.10;;
66455;Laerm;57651;51.438;5.982;2022-09-14T00:57:11;40.67;39.38;42.64;;
66455;Laerm;57651;51.438;5.982;2022-09-14T00:57:22;40.61;39.05;42.45;;
66455;Laerm;57651;51.438;5.982;2022-09-14T00:57:35;40.64;39.26;42.19;;
66455;Laerm;57651;51.438;5.982;2022-09-14T00:57:47;40.65;39.54;42.00;;
66455;Laerm;57651;51.438;5.982;2022-09-14T00:57:58;40.66;39.47;42.16;;
66455;Laerm;57651;51.438;5.982;2022-09-14T00:58:09;40.70;39.52;42.40;;
66455;Laerm;57651;51.438;5.982;2022-09-14T00:58:19;40.65;39.26;42.57;;
66455;Laerm;57651;51.438;5.982;2022-09-14T00:58:30;40.72;39.49;42.37;;
66455;Laerm;57651;51.438;5.982;2022-09-14T00:58:42;40.69;39.58;42.47;;
66455;Laerm;57651;51.438;5.982;2022-09-14T00:58:53;40.68;39.38;42.62;;
66455;Laerm;57651;51.438;5.982;2022-09-14T00:59:11;40.72;39.55;42.50;;
66455;Laerm;57651;51.438;5.982;2022-09-14T00:59:25;40.69;39.55;42.70;;
66455;Laerm;57651;51.438;5.982;2022-09-14T00:59:37;40.74;39.64;42.18;;
66455;Laerm;57651;51.438;5.982;2022-09-14T00:59:48;40.66;39.42;42.68;;
66455;Laerm;57651;51.438;5.982;2022-09-14T00:59:59;40.70;39.31;42.20;;
66455;Laerm;57651;51.438;5.982;2022-09-14T01:00:12;40.70;39.42;42.32;;
66455;Laerm;57651;51.438;5.982;2022-09-14T01:00:25;40.66;39.57;42.04;;
66455;Laerm;57651;51.438;5.982;2022-09-14T01:00:35;40.70;39.47;42.29;;
66455;Laerm;57651;51.438;5.982;2022-09-14T01:00:46;40.67;39.59;42.34;;
66455;Laerm;57651;51.438;5.982;2022-09-14T01:00:56;40.68;39.34;42.25;;
66455;Laerm;57651;51.438;5.982;2022-09-14T01:01:07;40.66;39.20;42.30;;
66455;Laerm;57651;51.438;5.982;2022-09-14T01:01:18;40.67;39.58;42.66;;
66455;Laerm;57651;51.438;5.982;2022-09-14T01:01:29;40.74;39.37;42.09;;
66455;Laerm;57651;51.438;5.982;2022-09-14T01:01:39;40.78;39.60;42.65;;
66455;Laerm;57651;51.438;5.982;2022-09-14T01:01:50;40.79;39.66;42.08;;
66455;Laerm;57651;51.438;5.982;2022-09-14T01:02:00;40.81;39.21;46.45;;
66455;Laerm;57651;51.438;5.982;2022-09-14T01:02:11;40.77;39.60;42.31;;
66455;Laerm;57651;51.438;5.982;2022-09-14T01:02:24;40.77;39.21;42.54;;
66455;Laerm;57651;51.438;5.982;2022-09-14T01:02:36;40.80;39.68;42.35;;
66455;Laerm;57651;51.438;5.982;2022-09-14T01:02:47;40.82;39.63;42.52;;
66455;Laerm;57651;51.438;5.982;2022-09-14T01:02:57;40.81;39.73;42.51;;
66455;Laerm;57651;51.438;5.982;2022-09-14T01:03:11;40.67;39.41;42.71;;
66455;Laerm;57651;51.438;5.982;2022-09-14T01:03:21;40.71;39.62;42.23;;
66455;Laerm;57651;51.438;5.982;2022-09-14T01:03:32;40.73;39.47;42.59;;
66455;Laerm;57651;51.438;5.982;2022-09-14T01:03:42;40.75;39.44;42.80;;
66455;Laerm;57651;51.438;5.982;2022-09-14T01:03:52;40.70;39.46;42.42;;
66455;Laerm;57651;51.438;5.982;2022-09-14T01:04:03;40.74;39.69;43.12;;
66455;Laerm;57651;51.438;5.982;2022-09-14T01:04:13;40.79;39.67;42.98;;
66455;Laerm;57651;51.438;5.982;2022-09-14T01:04:23;40.70;39.64;42.79;;
66455;Laerm;57651;51.438;5.982;2022-09-14T01:04:34;40.75;39.56;42.53;;
66455;Laerm;57651;51.438;5.982;2022-09-14T01:04:45;40.69;39.11;42.72;;
66455;Laerm;57651;51.438;5.982;2022-09-14T01:04:56;40.75;39.61;42.69;;